createdAt,value
2022-07-29T00:23:59.565Z,18.88
2022-07-29T00:29:31.073Z,18.78
2022-07-29T00:33:59.547Z,18.68
2022-07-29T00:48:59.593Z,18.31
2022-07-29T01:03:59.507Z,18.04
2022-07-29T01:08:59.519Z,17.97
2022-07-29T01:13:59.514Z,17.91
2022-07-29T01:18:59.515Z,17.88
2022-07-29T01:23:59.487Z,17.8
2022-07-29T01:28:59.474Z,17.8
2022-07-29T01:33:59.485Z,17.76
2022-07-29T01:38:59.481Z,17.7
2022-07-29T01:43:59.460Z,17.65
2022-07-29T01:48:59.497Z,17.64
2022-07-29T01:53:59.445Z,17.57
2022-07-29T01:58:59.453Z,17.5
2022-07-29T02:03:59.430Z,17.48
2022-07-29T02:08:59.444Z,17.43
2022-07-29T02:13:59.426Z,17.35
2022-07-29T02:18:59.412Z,17.26
2022-07-29T02:23:59.432Z,17.12
2022-07-29T02:28:59.407Z,16.99
2022-07-29T02:33:59.398Z,16.87
2022-07-29T02:38:59.383Z,16.79
2022-07-29T02:43:59.389Z,16.69
2022-07-29T02:48:59.438Z,16.55
2022-07-29T02:53:59.359Z,16.43
2022-07-29T02:58:59.351Z,16.37
2022-07-29T03:03:59.348Z,16.37
2022-07-29T03:08:59.352Z,16.4
2022-07-29T03:13:59.341Z,16.4
2022-07-29T03:18:59.328Z,16.46
2022-07-29T03:23:59.347Z,16.51
2022-07-29T03:28:59.323Z,16.55
2022-07-29T03:33:59.315Z,16.57
2022-07-29T03:38:59.318Z,16.61
2022-07-29T03:43:59.313Z,16.63
2022-07-29T03:48:59.409Z,16.68
2022-07-29T03:53:59.310Z,16.74
2022-07-29T03:58:59.285Z,16.77
2022-07-29T04:03:59.352Z,16.79
2022-07-29T04:08:59.274Z,16.82
2022-07-29T04:13:59.261Z,16.86
2022-07-29T04:18:59.266Z,16.88
2022-07-29T04:23:59.259Z,16.87
2022-07-29T04:28:59.249Z,16.8
2022-07-29T04:33:59.253Z,16.78
2022-07-29T04:38:59.250Z,16.79
2022-07-29T04:43:59.226Z,16.91
2022-07-29T04:53:59.209Z,17.36
2022-07-29T04:58:59.208Z,17.54
2022-07-29T05:04:00.585Z,17.75
2022-07-29T05:08:59.183Z,18.04
2022-07-29T05:13:59.190Z,18.38
2022-07-29T05:18:59.167Z,18.72
2022-07-29T05:38:59.150Z,19.75
2022-07-29T06:08:59.106Z,20.52
2022-07-29T06:13:59.101Z,20.39
2022-07-29T06:18:59.110Z,20.29
2022-07-29T06:23:59.098Z,20.23
2022-07-29T06:28:59.094Z,20.42
2022-07-29T06:33:59.082Z,20.98
2022-07-29T06:38:59.077Z,21.31
2022-07-29T06:43:59.067Z,21.58
2022-07-29T06:48:59.118Z,21.59
2022-07-29T06:54:00.542Z,21.4
2022-07-29T06:58:59.053Z,21.32
2022-07-29T07:03:59.045Z,21.94
2022-07-29T07:08:59.035Z,22.65
2022-07-29T07:14:02.896Z,23.16
2022-07-29T07:18:59.025Z,23.65
2022-07-29T07:23:59.018Z,24.08
2022-07-29T07:28:59.021Z,24.46
2022-07-29T07:33:59.005Z,24.68
2022-07-29T07:38:58.997Z,24.95
2022-07-29T07:43:58.980Z,25.28
2022-07-29T07:48:59.069Z,25.36
2022-07-29T07:53:58.976Z,25.16
2022-07-29T07:58:58.993Z,25.43
2022-07-29T08:03:58.956Z,25.43
2022-07-29T08:09:13.560Z,25.43
2022-07-29T08:13:58.940Z,25.55
2022-07-29T08:18:58.931Z,25.69
2022-07-29T08:24:01.885Z,25.69
2022-07-29T08:28:58.937Z,25.81
2022-07-29T08:33:58.906Z,25.84
2022-07-29T08:38:58.905Z,25.91
2022-07-29T08:43:58.926Z,26.14
2022-07-29T08:48:58.999Z,26.41
2022-07-29T08:53:58.887Z,26.69
2022-07-29T08:58:58.892Z,26.9
2022-07-29T09:03:58.919Z,27.47
2022-07-29T09:08:58.879Z,27.47
2022-07-29T09:13:58.884Z,27.47
2022-07-29T09:18:58.862Z,27.47
2022-07-29T09:23:58.847Z,27.66
2022-07-29T09:28:58.852Z,27.78
2022-07-29T09:33:58.834Z,27.39
2022-07-29T09:38:58.828Z,27.66
2022-07-29T09:43:58.831Z,27.73
2022-07-29T09:48:58.876Z,27.61
2022-07-29T09:53:58.820Z,27.94
2022-07-29T09:58:58.807Z,28.09
2022-07-29T10:03:58.803Z,28.09
2022-07-29T10:08:58.792Z,28.26
2022-07-29T10:13:58.788Z,28.67
2022-07-29T10:18:58.800Z,28.84
2022-07-29T10:23:59.647Z,29.15
2022-07-29T10:28:58.762Z,29.42
2022-07-29T10:33:58.763Z,29.55
2022-07-29T10:38:58.745Z,29.58
2022-07-29T10:43:58.736Z,29.93
2022-07-29T10:48:58.792Z,30.16
2022-07-29T10:53:58.730Z,29.83
2022-07-29T10:58:58.738Z,29.72
2022-07-29T11:03:58.727Z,29.58
2022-07-29T11:08:58.708Z,29.85
2022-07-29T11:13:58.701Z,30.01
2022-07-29T11:18:58.702Z,29.79
2022-07-29T11:23:58.696Z,29.74
2022-07-29T11:28:58.690Z,29.72
2022-07-29T11:34:02.462Z,29.72
2022-07-29T11:38:58.677Z,29.72
2022-07-29T11:43:58.657Z,29.71
2022-07-29T11:48:58.694Z,29.94
2022-07-29T11:54:02.547Z,29.61
2022-07-29T11:58:58.664Z,29.15
2022-07-29T12:03:58.714Z,29.24
2022-07-29T12:08:58.640Z,29.12
2022-07-29T12:13:58.643Z,29.34
2022-07-29T12:18:58.676Z,29.41
2022-07-29T12:24:05.004Z,29.34
2022-07-29T12:28:58.641Z,29.38
2022-07-29T12:33:58.631Z,28.94
2022-07-29T12:38:58.612Z,29.03
2022-07-29T12:43:58.601Z,28.9
2022-07-29T12:48:58.686Z,29.2
2022-07-29T12:53:58.577Z,29.15
2022-07-29T12:58:58.581Z,29.12
2022-07-29T13:03:59.729Z,29.03
2022-07-29T13:08:58.565Z,28.74
2022-07-29T13:14:03.074Z,28.77
2022-07-29T13:18:58.545Z,28.87
2022-07-29T13:23:58.554Z,29.12
2022-07-29T13:28:58.556Z,29.34
2022-07-29T13:33:58.525Z,29.35
2022-07-29T13:38:58.535Z,29.69
2022-07-29T13:43:58.537Z,29.94
2022-07-29T13:48:58.573Z,29.51
2022-07-29T13:53:58.520Z,29.44
2022-07-29T13:58:58.506Z,29.43
2022-07-29T14:03:58.498Z,29.27
2022-07-29T14:08:58.483Z,28.94
2022-07-29T14:13:58.499Z,28.77
2022-07-29T14:18:58.477Z,28.59
2022-07-29T14:28:58.480Z,28.55
2022-07-29T14:34:02.478Z,28.54
2022-07-29T14:38:58.441Z,28.32
2022-07-29T14:43:58.446Z,28.24
2022-07-29T14:58:58.427Z,27.5
2022-07-29T15:08:58.404Z,27.44
2022-07-29T15:13:58.393Z,27.33
2022-07-29T15:28:58.381Z,26.88
2022-07-29T15:34:01.251Z,26.86
2022-07-29T15:38:58.381Z,26.73
2022-07-29T15:43:58.379Z,26.73
2022-07-29T15:48:58.410Z,26.56
2022-07-29T15:53:58.354Z,26.56
2022-07-29T15:58:58.369Z,26.55
2022-07-29T16:03:58.386Z,26.33
2022-07-29T16:08:58.326Z,26.22
2022-07-29T16:13:58.333Z,26.06
2022-07-29T16:18:58.325Z,25.96
2022-07-29T16:23:58.319Z,25.84
2022-07-29T16:28:58.306Z,25.69
2022-07-29T16:33:58.303Z,25.44
2022-07-29T16:38:58.304Z,25.22
2022-07-29T16:43:58.284Z,25.05
2022-07-29T16:48:58.354Z,24.91
2022-07-29T16:53:58.266Z,24.78
2022-07-29T16:58:58.264Z,24.66
2022-07-29T17:04:00.054Z,24.48
2022-07-29T17:08:58.236Z,24.33
2022-07-29T17:13:58.246Z,24.21
2022-07-29T17:18:58.230Z,24.08
2022-07-29T17:23:58.230Z,23.99
2022-07-29T17:28:58.222Z,23.91
2022-07-29T17:33:59.950Z,23.88
2022-07-29T17:38:58.247Z,23.78
2022-07-29T17:43:58.215Z,23.62
2022-07-29T17:48:58.249Z,23.5
2022-07-29T17:53:58.204Z,23.45
2022-07-29T17:58:58.179Z,23.41
2022-07-29T18:04:00.134Z,23.27
2022-07-29T18:08:58.177Z,23.17
2022-07-29T18:13:58.153Z,23.06
2022-07-29T18:18:58.169Z,22.93
2022-07-29T18:23:58.148Z,22.84
2022-07-29T18:28:58.150Z,22.64
2022-07-29T18:34:00.014Z,22.48
2022-07-29T18:38:58.136Z,22.25
2022-07-29T18:43:58.134Z,22.01
2022-07-29T18:48:58.163Z,21.79
2022-07-29T18:53:58.117Z,21.53
2022-07-29T18:58:58.116Z,21.3
2022-07-29T19:03:58.105Z,21.14
2022-07-29T19:08:58.102Z,20.98
2022-07-29T19:13:58.095Z,20.91
2022-07-29T19:18:58.075Z,20.67
2022-07-29T19:23:59.415Z,20.56
2022-07-29T19:28:58.064Z,20.41
2022-07-29T19:33:58.052Z,20.31
2022-07-29T19:38:58.052Z,20.19
2022-07-29T19:43:58.047Z,20.11
2022-07-29T19:48:58.055Z,20.02
2022-07-29T19:53:58.032Z,19.87
2022-07-29T19:58:58.039Z,19.76
2022-07-29T20:23:57.987Z,19.02
2022-07-29T20:38:57.971Z,18.59
2022-07-29T20:43:57.958Z,18.43
2022-07-29T20:53:57.961Z,18.19
2022-07-29T20:58:57.937Z,18.12
2022-07-29T21:03:57.927Z,18.02
2022-07-29T21:08:57.966Z,17.9
2022-07-29T21:13:57.922Z,17.8
2022-07-29T21:18:57.926Z,17.71
2022-07-29T21:23:57.927Z,17.62
2022-07-29T21:28:57.914Z,17.53
2022-07-29T21:33:57.882Z,17.45
2022-07-29T21:38:57.900Z,17.38
2022-07-29T21:43:58.370Z,17.32
2022-07-29T21:48:57.960Z,17.26
2022-07-29T21:53:57.901Z,17.21
2022-07-29T21:58:57.907Z,17.15
2022-07-29T22:13:57.878Z,16.95
2022-07-29T22:18:57.833Z,16.87
2022-07-29T22:23:57.837Z,16.82
2022-07-29T22:28:57.847Z,16.8
2022-07-29T22:33:57.818Z,16.8
2022-07-29T22:38:57.826Z,16.79
2022-07-29T22:43:57.811Z,16.79
2022-07-29T22:48:57.854Z,16.79
2022-07-29T22:53:57.798Z,16.8
2022-07-29T22:58:57.789Z,16.8
2022-07-29T23:03:57.811Z,16.8
2022-07-29T23:08:57.779Z,16.83
2022-07-29T23:13:57.762Z,16.8
2022-07-29T23:18:57.765Z,16.8
2022-07-29T23:23:57.735Z,16.78
2022-07-29T23:28:57.765Z,16.74
2022-07-29T23:33:57.735Z,16.69
2022-07-29T23:38:57.726Z,16.69
2022-07-29T23:43:57.745Z,16.68
2022-07-29T23:48:57.818Z,16.65
2022-07-29T23:53:57.715Z,16.64
2022-07-29T23:58:57.709Z,16.63
